NCAR-RAP Real-Time Weather Data

Output produced by METARs form (17 October 2018  16:06 UTC)
found at http://weather.rap.ucar.edu/surface/
 
RJFO 171300Z 30007KT CAVOK 18/13 Q1013
RJFO 171200Z 32008KT CAVOK 18/14 Q1013
RJFO 171100Z 30008KT 280V340 CAVOK 19/14 Q1013
RJFO 171000Z 29006KT 9999 BKN050 BKN/// 19/14 Q1012
RJFO 170900Z 26003KT 210V290 9999 FEW040 BKN/// 19/13 Q1012
RJFO 170800Z 28005KT 9999 FEW030 BKN/// 20/13 Q1012
RJFO 170700Z 32005KT 280V030 9999 FEW030 SCT045 BKN/// 22/12 Q1012
RJFO 170600Z 01005KT 310V040 9999 FEW030 SCT045 BKN/// 22/12 Q1011
RJFO 170500Z 03010KT 9999 FEW030 BKN/// 22/13 Q1011
RJFO 170400Z 03010KT 9999 FEW030 BKN/// 22/11 Q1011
RJFO 170300Z 03008KT 9999 FEW030 BKN/// 22/12 Q1012
RJFO 170200Z 35008KT 9999 FEW030 BKN/// 22/12 Q1013
RJFO 170100Z 35008KT 9999 FEW030 BKN/// 20/12 Q1013
RJFO 170000Z 34008KT 9999 FEW030 BKN/// 20/12 Q1013
RJFO 162300Z 31005KT 9999 FEW030 BKN/// 19/13 Q1012
RJFO 162200Z 28004KT 9999 FEW030 SCT080 BKN/// 17/13 Q1012
RJFO 161300Z 34007KT 9999 -RA FEW030 SCT050 BKN100 18/15 Q1011
RJFO 161200Z 24004KT 9999 FEW035 SCT060 BKN100 19/15 Q1011
RJFO 161100Z 27003KT 9999 FEW060 SCT110 BKN150 19/14 Q1011
RJFO 161000Z 26003KT 230V330 9999 FEW030 BKN120 BKN160 19/14 Q1011
RJFO 160900Z 27003KT 9999 FEW030 SCT060 BKN180 19/13 Q1011
RJFO 160800Z 36006KT 9999 FEW035 SCT100 BKN120 21/14 Q1010
RJFO 160700Z 35007KT 9999 FEW030 SCT045 BKN150 21/12 Q1011
RJFO 160600Z 02010KT 9999 FEW030 BKN130 BKN/// 21/15 Q1011
RJFO 160500Z 04008KT 9999 FEW030 BKN140 BKN/// 21/15 Q1011
RJFO 160400Z 03008KT 9999 FEW020 SCT030 BKN120 21/15 Q1012
RJFO 160300Z 36008KT 330V030 9999 FEW025 BKN140 21/15 Q1013
RJFO 160200Z 01007KT 9999 FEW025 SCT030 BKN150 21/16 Q1013
RJFO 160100Z 35007KT 320V030 9999 FEW025 SCT180 BKN/// 21/16 Q1014
RJFO 160000Z 33005KT 9999 FEW030 BKN/// 20/16 Q1015
RJFO 152300Z 27005KT 9999 FEW030 SCT150 BKN/// 17/15 Q1015
RJFO 152200Z 28006KT 9999 FEW030 SCT140 BKN/// 16/14 Q1015
RJFO 151300Z 29005KT 9999 FEW030 SCT/// 16/13 Q1016
RJFO 151200Z 28005KT 9999 FEW030 SCT/// 17/13 Q1017
RJFO 151100Z VRB02KT CAVOK 17/13 Q1016
RJFO 151000Z 30006KT 9999 FEW030 SCT/// 19/12 Q1016
RJFO 150900Z 31006KT 9999 FEW035 SCT/// 20/12 Q1016
RJFO 150800Z 33004KT 9999 FEW035 BKN/// 22/11 Q1015
RJFO 150700Z 34006KT 290V010 9999 FEW035 BKN/// 23/11 Q1016
RJFO 150600Z 31005KT 280V340 9999 FEW035 BKN/// 23/12 Q1016
RJFO 150500Z 12003KT 060V170 9999 FEW035 BKN/// 22/14 Q1016